Time,TemperatureF,DewpointF,PressureIn,WindDirection,WindDirectionDegrees,WindSpeedMPH,WindSpeedGustMPH,Humidity,HourlyPrecipIn,Conditions,Clouds,dailyrainin,SoftwareType,DateUTC
2015-05-06 00:01:00,51.0,39.0,-100.00,North,-9999,0.0,3.0,63,-99.99,,,-99.99,,2015-05-06 07:01:00,
2015-05-06 00:11:00,51.0,39.0,-100.00,North,-9999,0.0,3.0,63,-99.99,,,-99.99,,2015-05-06 07:11:00,
2015-05-06 00:21:00,51.0,39.0,-100.00,North,-9999,0.0,3.0,63,-99.99,,,-99.99,,2015-05-06 07:21:00,
2015-05-06 00:31:00,51.0,39.0,-100.00,North,-9999,0.0,3.0,63,-99.99,,,-99.99,,2015-05-06 07:31:00,
2015-05-06 00:52:00,51.0,35.0,-100.00,North,-9999,0.0,2.0,55,-99.99,,,-99.99,,2015-05-06 07:52:00,
2015-05-06 01:01:00,51.0,35.0,-100.00,North,-9999,0.0,2.0,55,-99.99,,,-99.99,,2015-05-06 08:01:00,
2015-05-06 01:11:00,51.0,35.0,-100.00,North,-9999,0.0,2.0,55,-99.99,,,-99.99,,2015-05-06 08:11:00,
2015-05-06 01:21:00,51.0,35.0,-100.00,North,-9999,0.0,2.0,55,-99.99,,,-99.99,,2015-05-06 08:21:00,
2015-05-06 01:31:00,51.0,35.0,-100.00,North,-9999,0.0,2.0,55,-99.99,,,-99.99,,2015-05-06 08:31:00,
2015-05-06 01:51:00,51.0,33.0,-100.00,North,-9999,0.0,1.0,50,-99.99,,,-99.99,,2015-05-06 08:51:00,
2015-05-06 02:01:00,51.0,33.0,-100.00,North,-9999,0.0,1.0,50,-99.99,,,-99.99,,2015-05-06 09:01:00,
2015-05-06 02:11:00,51.0,33.0,-100.00,North,-9999,0.0,1.0,50,-99.99,,,-99.99,,2015-05-06 09:11:00,
2015-05-06 02:21:00,51.0,33.0,-100.00,North,-9999,0.0,1.0,50,-99.99,,,-99.99,,2015-05-06 09:21:00,
2015-05-06 02:31:00,51.0,33.0,-100.00,North,-9999,0.0,1.0,50,-99.99,,,-99.99,,2015-05-06 09:31:00,
2015-05-06 03:01:00,50.0,34.0,-100.00,North,-9999,0.0,1.0,53,-99.99,,,-99.99,,2015-05-06 10:01:00,
2015-05-06 03:11:00,50.0,34.0,-100.00,North,-9999,0.0,1.0,53,-99.99,,,-99.99,,2015-05-06 10:11:00,
2015-05-06 03:21:00,50.0,34.0,-100.00,North,-9999,0.0,1.0,53,-99.99,,,-99.99,,2015-05-06 10:21:00,
2015-05-06 03:31:00,50.0,34.0,-100.00,North,-9999,0.0,1.0,53,-99.99,,,-99.99,,2015-05-06 10:31:00,
2015-05-06 04:01:00,50.0,34.0,-100.00,North,-9999,0.0,1.0,54,-99.99,,,-99.99,,2015-05-06 11:01:00,
2015-05-06 04:11:00,50.0,34.0,-100.00,North,-9999,0.0,1.0,54,-99.99,,,-99.99,,2015-05-06 11:11:00,
2015-05-06 04:21:00,50.0,34.0,-100.00,North,-9999,0.0,1.0,54,-99.99,,,-99.99,,2015-05-06 11:21:00,
2015-05-06 04:31:00,50.0,34.0,-100.00,North,-9999,0.0,1.0,54,-99.99,,,-99.99,,2015-05-06 11:31:00,
2015-05-06 05:01:00,49.0,35.0,-100.00,North,-9999,0.0,1.0,59,-99.99,,,-99.99,,2015-05-06 12:01:00,
2015-05-06 05:11:00,49.0,35.0,-100.00,North,-9999,0.0,1.0,59,-99.99,,,-99.99,,2015-05-06 12:11:00,
2015-05-06 05:21:00,49.0,35.0,-100.00,North,-9999,0.0,1.0,59,-99.99,,,-99.99,,2015-05-06 12:21:00,
2015-05-06 05:31:00,49.0,35.0,-100.00,North,-9999,0.0,1.0,59,-99.99,,,-99.99,,2015-05-06 12:31:00,
2015-05-06 06:01:00,48.0,35.0,-100.00,North,-9999,0.0,0.0,60,-99.99,,,-99.99,,2015-05-06 13:01:00,
2015-05-06 06:11:00,48.0,35.0,-100.00,North,-9999,0.0,0.0,60,-99.99,,,-99.99,,2015-05-06 13:11:00,
2015-05-06 06:21:00,48.0,35.0,-100.00,North,-9999,0.0,0.0,60,-99.99,,,-99.99,,2015-05-06 13:21:00,
2015-05-06 06:31:00,48.0,35.0,-100.00,North,-9999,0.0,0.0,60,-99.99,,,-99.99,,2015-05-06 13:31:00,
2015-05-06 07:01:00,48.0,36.0,-100.00,North,-9999,0.0,0.0,63,-99.99,,,-99.99,,2015-05-06 14:01:00,
2015-05-06 07:11:00,48.0,36.0,-100.00,North,-9999,0.0,0.0,63,-99.99,,,-99.99,,2015-05-06 14:11:00,
2015-05-06 07:21:00,48.0,36.0,-100.00,North,-9999,0.0,0.0,63,-99.99,,,-99.99,,2015-05-06 14:21:00,
2015-05-06 07:31:00,48.0,36.0,-100.00,North,-9999,0.0,0.0,63,-99.99,,,-99.99,,2015-05-06 14:31:00,
2015-05-06 08:01:00,51.0,38.0,-100.00,ESE,119,1.0,2.0,61,-99.99,,,-99.99,,2015-05-06 15:01:00,
2015-05-06 08:21:00,51.0,38.0,-100.00,ESE,119,1.0,2.0,61,-99.99,,,-99.99,,2015-05-06 15:21:00,
2015-05-06 08:31:00,51.0,38.0,-100.00,ESE,119,1.0,2.0,61,-99.99,,,-99.99,,2015-05-06 15:31:00,
2015-05-06 09:21:00,57.0,41.0,-100.00,ESE,105,2.0,5.0,55,-99.99,,,-99.99,,2015-05-06 16:21:00,
2015-05-06 09:31:00,57.0,41.0,-100.00,ESE,105,2.0,5.0,55,-99.99,,,-99.99,,2015-05-06 16:31:00,
2015-05-06 10:11:00,60.0,41.0,-100.00,SSE,164,2.0,4.0,50,-99.99,,,-99.99,,2015-05-06 17:11:00,
2015-05-06 10:22:00,60.0,41.0,-100.00,SSE,164,2.0,4.0,50,-99.99,,,-99.99,,2015-05-06 17:22:00,
2015-05-06 10:32:00,60.0,41.0,-100.00,SSE,164,2.0,4.0,50,-99.99,,,-99.99,,2015-05-06 17:32:00,
2015-05-06 11:02:00,58.0,42.0,-100.00,South,179,2.0,8.0,55,-99.99,,,-99.99,,2015-05-06 18:02:00,
2015-05-06 11:11:00,58.0,42.0,-100.00,South,179,2.0,8.0,55,-99.99,,,-99.99,,2015-05-06 18:11:00,
2015-05-06 11:22:00,58.0,42.0,-100.00,South,179,2.0,8.0,55,-99.99,,,-99.99,,2015-05-06 18:22:00,
2015-05-06 11:32:00,58.0,42.0,-100.00,South,179,2.0,8.0,55,-99.99,,,-99.99,,2015-05-06 18:32:00,
2015-05-06 12:02:00,60.0,43.0,-100.00,SE,138,3.0,12.0,54,-99.99,,,-99.99,,2015-05-06 19:02:00,
2015-05-06 12:11:00,60.0,43.0,-100.00,SE,138,3.0,12.0,54,-99.99,,,-99.99,,2015-05-06 19:11:00,
2015-05-06 12:21:00,60.0,43.0,-100.00,SE,138,3.0,12.0,54,-99.99,,,-99.99,,2015-05-06 19:21:00,
2015-05-06 12:31:00,60.0,43.0,-100.00,SE,138,3.0,12.0,54,-99.99,,,-99.99,,2015-05-06 19:31:00,
2015-05-06 13:02:00,57.0,43.0,-100.00,SE,146,2.0,12.0,60,-99.99,,,-99.99,,2015-05-06 20:02:00,
2015-05-06 13:11:00,57.0,43.0,-100.00,SE,146,2.0,12.0,60,-99.99,,,-99.99,,2015-05-06 20:11:00,
2015-05-06 13:21:00,57.0,43.0,-100.00,SE,146,2.0,12.0,60,-99.99,,,-99.99,,2015-05-06 20:21:00,
2015-05-06 13:31:00,57.0,43.0,-100.00,SE,146,2.0,12.0,60,-99.99,,,-99.99,,2015-05-06 20:31:00,
2015-05-06 13:33:00,59.0,43.0,-100.00,SSE,167,4.0,14.0,55,-99.99,,,-99.99,,2015-05-06 20:33:00,
2015-05-06 14:27:00,59.0,43.0,-100.00,SSE,167,4.0,14.0,55,-99.99,,,-99.99,,2015-05-06 21:27:00,
2015-05-06 15:01:00,58.0,45.0,-100.00,NW,305,1.0,17.0,61,-99.99,,,-99.99,,2015-05-06 22:01:00,
2015-05-06 15:11:00,58.0,45.0,-100.00,NW,305,1.0,17.0,61,-99.99,,,-99.99,,2015-05-06 22:11:00,
2015-05-06 15:21:00,58.0,45.0,-100.00,NW,305,1.0,17.0,61,-99.99,,,-99.99,,2015-05-06 22:21:00,
2015-05-06 15:31:00,58.0,45.0,-100.00,NW,305,1.0,17.0,61,-99.99,,,-99.99,,2015-05-06 22:31:00,
2015-05-06 17:02:00,51.0,40.0,-100.00,North,-9999,0.0,11.0,65,-99.99,,,-99.99,,2015-05-07 00:02:00,
2015-05-06 17:21:00,51.0,40.0,-100.00,North,-9999,0.0,11.0,65,-99.99,,,-99.99,,2015-05-07 00:21:00,
2015-05-06 17:31:00,51.0,40.0,-100.00,North,-9999,0.0,11.0,65,-99.99,,,-99.99,,2015-05-07 00:31:00,
2015-05-06 18:01:00,52.0,38.0,-100.00,SE,134,1.0,4.0,59,-99.99,,,-99.99,,2015-05-07 01:01:00,
2015-05-06 18:11:00,52.0,38.0,-100.00,SE,134,1.0,4.0,59,-99.99,,,-99.99,,2015-05-07 01:11:00,
2015-05-06 18:21:00,52.0,38.0,-100.00,SE,134,1.0,4.0,59,-99.99,,,-99.99,,2015-05-07 01:21:00,
2015-05-06 18:31:00,52.0,38.0,-100.00,SE,134,1.0,4.0,59,-99.99,,,-99.99,,2015-05-07 01:31:00,